Time;durP1;ratioP1;P1;durP2;ratioP2;P2;SDS_P1;SDS_P2;PMS_P1;PMS_P2;Temp;Humidity;BMP_temperature;BMP_pressure;BME280_temperature;BME280_humidity;BME280_pressure;Samples;Min_cycle;Max_cycle;Signal;HPM_P1;HPM_P2
2023/03/12 00:01:29;;;;;;;6.57;2.20;;;1.50;99.90;;;;;;7340683;32;20307;-56
2023/03/12 00:05:31;;;;;;;3.50;1.95;;;1.60;99.90;;;;;;7334195;32;20220;-56
2023/03/12 00:09:37;;;;;;;4.32;2.17;;;1.70;99.90;;;;;;7349055;32;20294;-55
2023/03/12 00:13:39;;;;;;;4.40;2.13;;;1.80;99.90;;;;;;7340775;32;20147;-55
2023/03/12 00:17:41;;;;;;;8.13;1.67;;;1.80;99.90;;;;;;7342990;32;20179;-56
2023/03/12 00:21:42;;;;;;;6.90;2.00;;;1.80;99.90;;;;;;7340850;32;20225;-55
2023/03/12 00:25:44;;;;;;;5.35;2.10;;;1.80;99.90;;;;;;7344746;32;20677;-56
2023/03/12 00:29:47;;;;;;;4.70;1.73;;;1.80;99.90;;;;;;7338887;32;20463;-56
2023/03/12 00:33:49;;;;;;;4.25;1.60;;;1.80;99.90;;;;;;7335701;32;20127;-56
2023/03/12 00:37:51;;;;;;;5.25;1.70;;;1.90;99.90;;;;;;7338079;32;20712;-56
2023/03/12 00:41:53;;;;;;;8.48;1.60;;;1.90;99.90;;;;;;7334596;32;20442;-56
2023/03/12 00:45:54;;;;;;;6.32;1.73;;;1.90;99.90;;;;;;7332089;32;20123;-56
2023/03/12 00:49:56;;;;;;;5.22;1.60;;;1.90;99.90;;;;;;7336078;32;20261;-56
2023/03/12 00:53:58;;;;;;;4.60;1.77;;;2.00;99.90;;;;;;7342442;32;20107;-56
2023/03/12 00:57:59;;;;;;;8.27;2.03;;;2.00;99.90;;;;;;7343208;32;20139;-56
2023/03/12 01:02:01;;;;;;;6.45;1.70;;;2.10;99.90;;;;;;7330305;32;20509;-54
2023/03/12 01:06:03;;;;;;;6.78;1.77;;;2.10;99.90;;;;;;7330772;32;20099;-54
2023/03/12 01:10:07;;;;;;;3.78;1.45;;;2.10;99.90;;;;;;7339540;32;20115;-53
2023/03/12 01:14:09;;;;;;;3.78;1.25;;;2.10;99.90;;;;;;7329779;32;20254;-54
2023/03/12 01:18:11;;;;;;;3.55;1.50;;;2.20;99.90;;;;;;7329664;32;20100;-55
2023/03/12 01:22:13;;;;;;;4.10;1.60;;;2.30;99.90;;;;;;7334531;32;20980;-54
2023/03/12 01:26:14;;;;;;;5.00;1.45;;;2.30;99.90;;;;;;7334306;32;20185;-54
2023/03/12 01:30:16;;;;;;;6.05;1.25;;;2.40;99.90;;;;;;7336243;32;20125;-55
2023/03/12 01:34:18;;;;;;;6.68;1.77;;;2.40;99.90;;;;;;7337450;32;20364;-55
2023/03/12 01:38:20;;;;;;;8.95;1.65;;;2.40;99.90;;;;;;7336451;32;20195;-54
2023/03/12 01:42:21;;;;;;;4.37;1.40;;;2.60;99.90;;;;;;7340792;32;20133;-55
2023/03/12 01:46:38;;;;;;;7.05;1.67;;;2.40;99.90;;;;;;7336292;32;20344;-55
2023/03/12 01:50:40;;;;;;;4.57;1.50;;;2.40;99.90;;;;;;7335970;32;20139;-54
2023/03/12 01:55:04;;;;;;;9.20;1.77;;;2.40;99.90;;;;;;7332832;32;20099;-54
2023/03/12 01:59:17;;;;;;;3.25;1.70;;;2.50;99.90;;;;;;7327949;32;20107;-55
2023/03/12 02:03:19;;;;;;;3.75;1.60;;;2.40;99.90;;;;;;7330910;32;20503;-55
2023/03/12 02:07:21;;;;;;;3.22;1.40;;;2.30;99.90;;;;;;7336412;32;20129;-55
2023/03/12 02:11:22;;;;;;;6.50;1.95;;;2.30;99.90;;;;;;7335627;32;20212;-54
2023/03/12 02:15:24;;;;;;;6.95;1.55;;;2.30;99.90;;;;;;7338635;32;20292;-55
2023/03/12 02:19:44;;;;;;;5.55;1.73;;;2.40;99.90;;;;;;7338885;32;20127;-54
2023/03/12 02:24:21;;;;;;;5.15;1.60;;;2.40;99.90;;;;;;7335111;32;20114;-55
2023/03/12 02:28:25;;;;;;;9.93;1.70;;;2.30;99.90;;;;;;7331414;32;20142;-55
2023/03/12 02:32:33;;;;;;;3.35;1.60;;;2.30;99.90;;;;;;7339126;32;20133;-54
2023/03/12 02:36:35;;;;;;;5.15;1.58;;;2.30;99.90;;;;;;7335407;32;20126;-54
2023/03/12 02:40:44;;;;;;;8.18;2.05;;;2.30;99.90;;;;;;7333354;32;20136;-55
2023/03/12 02:44:45;;;;;;;6.43;1.60;;;2.30;99.90;;;;;;7334856;32;20859;-54
2023/03/12 02:48:47;;;;;;;4.55;1.62;;;2.30;99.90;;;;;;7337734;32;20133;-55
2023/03/12 02:52:49;;;;;;;3.72;1.40;;;2.30;99.90;;;;;;7328515;32;20190;-55
2023/03/12 02:56:51;;;;;;;4.57;1.48;;;2.30;99.90;;;;;;7326478;32;20141;-55
2023/03/12 03:00:53;;;;;;;5.07;1.87;;;2.30;99.90;;;;;;7332465;32;20183;-55
2023/03/12 03:04:55;;;;;;;5.18;1.50;;;2.30;99.90;;;;;;7333891;32;20121;-54
2023/03/12 03:08:57;;;;;;;5.32;1.62;;;2.30;99.90;;;;;;7342154;32;20699;-55
2023/03/12 03:12:58;;;;;;;6.55;1.40;;;2.40;99.90;;;;;;7325858;32;20219;-55
2023/03/12 03:17:00;;;;;;;4.57;1.58;;;2.40;99.90;;;;;;7333213;32;20107;-55
2023/03/12 03:21:05;;;;;;;5.60;1.50;;;2.40;99.90;;;;;;7336333;32;20133;-54
2023/03/12 03:25:08;;;;;;;6.43;1.60;;;2.40;99.90;;;;;;7336141;32;20127;-55
2023/03/12 03:29:10;;;;;;;4.62;1.40;;;2.50;99.90;;;;;;7346252;32;20127;-55
2023/03/12 03:33:11;;;;;;;2.42;1.27;;;2.50;99.90;;;;;;7331987;32;20126;-54
2023/03/12 03:37:13;;;;;;;3.83;1.20;;;2.50;99.90;;;;;;7330488;32;20126;-54
2023/03/12 03:41:17;;;;;;;5.35;1.50;;;2.50;99.90;;;;;;7341276;32;20454;-55
2023/03/12 03:45:19;;;;;;;6.50;1.37;;;2.50;99.90;;;;;;7340560;32;20191;-55
2023/03/12 03:49:21;;;;;;;8.55;1.92;;;2.60;99.90;;;;;;7341816;32;20675;-54
2023/03/12 03:53:23;;;;;;;4.25;1.50;;;2.60;99.90;;;;;;7343552;32;20106;-55
2023/03/12 03:57:26;;;;;;;2.22;1.20;;;2.60;99.90;;;;;;7344365;32;20110;-55
2023/03/12 04:01:27;;;;;;;4.12;1.23;;;2.60;99.90;;;;;;7343742;32;20738;-55
2023/03/12 04:05:29;;;;;;;5.40;1.33;;;2.60;99.90;;;;;;7348111;32;20341;-54
2023/03/12 04:09:31;;;;;;;7.60;1.50;;;2.60;99.90;;;;;;7344845;32;20461;-54
2023/03/12 04:13:33;;;;;;;4.28;1.48;;;2.70;99.90;;;;;;7340574;32;20136;-55
2023/03/12 04:17:35;;;;;;;3.92;1.20;;;2.70;99.90;;;;;;7344523;32;20170;-54
2023/03/12 04:21:38;;;;;;;5.10;1.30;;;2.80;99.90;;;;;;7347248;32;20112;-55
2023/03/12 04:25:40;;;;;;;4.68;1.33;;;2.90;99.90;;;;;;7342916;32;20207;-54
2023/03/12 04:29:42;;;;;;;6.90;1.30;;;2.90;99.90;;;;;;7336700;32;20268;-56
2023/03/12 04:33:43;;;;;;;6.57;1.35;;;2.90;99.90;;;;;;7342968;32;20554;-54
2023/03/12 04:37:45;;;;;;;9.35;1.85;;;2.90;99.90;;;;;;7341597;32;20170;-54
2023/03/12 04:41:47;;;;;;;6.28;1.33;;;2.90;99.90;;;;;;7342890;32;20111;-55
2023/03/12 04:45:49;;;;;;;7.07;1.17;;;2.90;99.90;;;;;;7342966;32;20640;-55
2023/03/12 04:49:50;;;;;;;3.55;1.20;;;2.80;99.90;;;;;;7340237;32;20824;-54
2023/03/12 04:53:52;;;;;;;4.40;1.33;;;2.80;99.90;;;;;;7343611;32;20127;-55
2023/03/12 04:57:54;;;;;;;6.87;1.33;;;2.90;99.90;;;;;;7336760;32;20714;-54
2023/03/12 05:01:55;;;;;;;5.00;1.42;;;2.80;99.90;;;;;;7338060;32;20140;-54
2023/03/12 05:05:57;;;;;;;6.18;1.60;;;2.70;99.90;;;;;;7335574;32;20316;-55
2023/03/12 05:09:59;;;;;;;4.10;1.30;;;2.80;99.90;;;;;;7343033;32;20555;-55
2023/03/12 05:14:01;;;;;;;6.60;1.02;;;2.90;99.90;;;;;;7337233;32;20202;-55
2023/03/12 05:18:03;;;;;;;8.57;1.40;;;2.90;99.90;;;;;;7333650;32;20131;-55
2023/03/12 05:22:04;;;;;;;3.62;1.33;;;2.90;99.90;;;;;;7342276;32;20111;-55
2023/03/12 05:26:07;;;;;;;4.35;1.42;;;2.90;99.90;;;;;;7342834;32;20182;-55
2023/03/12 05:30:09;;;;;;;6.72;1.80;;;2.90;99.90;;;;;;7331453;32;20114;-55
2023/03/12 05:34:12;;;;;;;8.73;1.85;;;2.90;99.90;;;;;;7342042;32;20111;-54
2023/03/12 05:38:14;;;;;;;3.12;1.42;;;2.80;99.90;;;;;;7337194;32;20229;-54
2023/03/12 05:42:16;;;;;;;7.65;1.60;;;2.90;99.90;;;;;;7334307;32;20108;-55
2023/03/12 05:46:17;;;;;;;5.70;1.60;;;2.80;99.90;;;;;;7330123;32;20108;-54
2023/03/12 05:50:19;;;;;;;6.45;1.65;;;2.80;99.90;;;;;;7331174;32;20178;-54
2023/03/12 05:54:21;;;;;;;8.20;1.60;;;2.90;99.90;;;;;;7336425;32;20298;-54
2023/03/12 05:58:22;;;;;;;4.72;1.67;;;2.80;99.90;;;;;;7337038;32;20730;-54
2023/03/12 06:02:24;;;;;;;10.75;1.70;;;2.80;99.90;;;;;;7333682;32;20103;-55
2023/03/12 06:06:28;;;;;;;7.22;1.77;;;2.80;99.90;;;;;;7329579;32;20186;-55
2023/03/12 06:10:30;;;;;;;4.80;1.48;;;2.80;99.90;;;;;;7329079;32;20784;-54
2023/03/12 06:14:31;;;;;;;6.28;1.87;;;2.80;99.90;;;;;;7337656;32;20520;-55
2023/03/12 06:18:34;;;;;;;5.85;1.58;;;2.80;99.90;;;;;;7325920;32;20103;-54
2023/03/12 06:22:36;;;;;;;6.53;1.77;;;2.80;99.90;;;;;;7341776;32;20485;-54
2023/03/12 06:26:39;;;;;;;6.50;1.80;;;2.90;99.90;;;;;;7338659;32;20789;-54
2023/03/12 06:30:40;;;;;;;9.15;1.92;;;2.80;99.90;;;;;;7331572;32;20157;-54
2023/03/12 06:34:42;;;;;;;7.45;1.65;;;2.70;99.90;;;;;;7325639;32;20321;-54
2023/03/12 06:38:44;;;;;;;5.05;1.70;;;2.80;99.90;;;;;;7333237;32;20854;-54
2023/03/12 06:42:46;;;;;;;7.40;1.83;;;2.80;99.90;;;;;;7326251;32;20569;-54
2023/03/12 06:46:48;;;;;;;7.07;2.15;;;2.80;99.90;;;;;;7335850;32;21104;-55
2023/03/12 06:50:50;;;;;;;10.63;2.05;;;2.70;99.90;;;;;;7335568;32;20678;-54
2023/03/12 06:54:52;;;;;;;8.15;2.05;;;2.80;99.90;;;;;;7340452;32;20178;-55
2023/03/12 06:58:54;;;;;;;7.75;2.03;;;2.70;99.90;;;;;;7333323;32;20252;-54
2023/03/12 07:02:56;;;;;;;10.00;2.20;;;2.70;99.90;;;;;;7338758;32;20149;-54
2023/03/12 07:06:57;;;;;;;9.63;2.50;;;2.80;99.90;;;;;;7343374;32;20167;-54
2023/03/12 07:10:59;;;;;;;5.72;1.77;;;2.80;99.90;;;;;;7331976;32;20174;-54
2023/03/12 07:15:03;;;;;;;4.95;1.80;;;2.90;99.90;;;;;;7335179;32;20168;-54
2023/03/12 07:19:05;;;;;;;5.72;2.05;;;2.70;99.90;;;;;;7334703;32;20473;-55
2023/03/12 07:23:07;;;;;;;10.88;2.22;;;2.90;99.90;;;;;;7335210;32;20218;-55
2023/03/12 07:27:09;;;;;;;6.53;2.30;;;2.90;99.90;;;;;;7338822;32;20174;-55
2023/03/12 07:31:10;;;;;;;8.60;2.83;;;2.90;99.90;;;;;;7335979;32;20166;-55
2023/03/12 07:35:12;;;;;;;6.15;2.08;;;3.00;99.90;;;;;;7337373;32;20127;-55
2023/03/12 07:39:14;;;;;;;5.87;2.10;;;3.10;99.90;;;;;;7332910;32;20158;-56
2023/03/12 07:43:15;;;;;;;7.60;2.05;;;3.10;99.90;;;;;;7335899;32;20146;-55
2023/03/12 07:47:19;;;;;;;7.43;2.10;;;3.20;99.90;;;;;;7338576;32;20317;-56
2023/03/12 07:51:25;;;;;;;6.20;2.45;;;3.20;99.90;;;;;;7336354;32;20537;-55
2023/03/12 07:55:26;;;;;;;7.43;2.55;;;3.20;99.90;;;;;;7332440;32;20275;-57
2023/03/12 07:59:28;;;;;;;5.85;2.00;;;3.30;99.90;;;;;;7327665;32;20217;-55
2023/03/12 08:03:30;;;;;;;6.37;2.12;;;3.50;99.90;;;;;;7336809;32;20817;-55
2023/03/12 08:07:34;;;;;;;6.65;2.15;;;3.30;99.90;;;;;;7336720;32;20139;-55
2023/03/12 08:11:36;;;;;;;9.77;2.58;;;3.50;99.90;;;;;;7337924;32;20121;-55
2023/03/12 08:15:38;;;;;;;8.65;2.45;;;3.40;99.90;;;;;;7327968;32;20301;-56
2023/03/12 08:19:39;;;;;;;4.15;2.33;;;3.30;99.90;;;;;;7330628;32;20131;-55
2023/03/12 08:23:41;;;;;;;7.80;2.22;;;3.50;99.90;;;;;;7335431;32;20120;-55
2023/03/12 08:27:43;;;;;;;8.50;2.30;;;3.40;99.90;;;;;;7342869;32;20137;-55
2023/03/12 08:31:45;;;;;;;6.72;2.15;;;3.40;99.90;;;;;;7346948;32;20107;-55
2023/03/12 08:36:04;;;;;;;8.48;2.87;;;3.50;99.90;;;;;;7335259;32;20271;-57
2023/03/12 08:40:13;;;;;;;8.45;2.83;;;3.60;99.90;;;;;;7340218;32;20446;-56
2023/03/12 08:44:14;;;;;;;8.02;2.67;;;3.70;99.90;;;;;;7336060;32;20103;-55
2023/03/12 08:48:16;;;;;;;5.32;2.70;;;3.70;99.90;;;;;;7337450;32;20313;-56
2023/03/12 08:52:18;;;;;;;6.80;2.37;;;3.70;99.90;;;;;;7340547;32;20312;-56
2023/03/12 08:56:21;;;;;;;9.10;3.05;;;3.70;99.90;;;;;;7332989;32;20236;-56
2023/03/12 09:00:23;;;;;;;5.20;2.53;;;3.80;99.90;;;;;;7339655;32;20183;-56
2023/03/12 09:04:25;;;;;;;5.45;2.95;;;3.90;99.90;;;;;;7337327;32;20131;-55
2023/03/12 09:08:27;;;;;;;5.50;3.00;;;3.90;99.90;;;;;;7340937;32;20599;-56
2023/03/12 09:12:29;;;;;;;9.23;2.92;;;3.90;99.90;;;;;;7343492;32;20217;-56
2023/03/12 09:16:30;;;;;;;6.00;3.40;;;3.90;99.90;;;;;;7339068;32;20100;-56
2023/03/12 09:20:32;;;;;;;7.95;3.55;;;3.80;99.90;;;;;;7335710;32;20233;-55
2023/03/12 09:24:34;;;;;;;6.30;3.20;;;3.90;99.90;;;;;;7337921;32;20115;-55
2023/03/12 09:28:36;;;;;;;8.05;4.20;;;3.90;99.90;;;;;;7336655;32;20135;-55
2023/03/12 09:32:37;;;;;;;5.75;3.97;;;3.80;99.90;;;;;;7331851;32;20242;-55
2023/03/12 09:36:39;;;;;;;5.50;4.18;;;4.00;99.90;;;;;;7325379;32;20139;-56
2023/03/12 09:40:46;;;;;;;6.55;4.40;;;3.90;99.90;;;;;;7328887;32;20400;-56
2023/03/12 09:44:50;;;;;;;7.80;4.53;;;3.80;99.90;;;;;;7338227;32;20141;-55
2023/03/12 09:48:56;;;;;;;6.95;5.05;;;3.80;99.90;;;;;;7339179;32;20115;-55
2023/03/12 09:53:02;;;;;;;7.40;4.25;;;3.80;99.90;;;;;;7339273;32;20108;-56
2023/03/12 09:57:15;;;;;;;6.87;5.03;;;3.80;99.90;;;;;;7331682;32;20195;-55
2023/03/12 10:01:53;;;;;;;7.45;4.85;;;3.80;99.90;;;;;;7335084;32;20319;-57
2023/03/12 10:06:07;;;;;;;;;;;3.90;99.90;;;;;;7338047;32;20150;-55
2023/03/12 10:10:21;;;;;;;9.25;5.00;;;4.00;99.90;;;;;;7334670;32;20097;-56
2023/03/12 10:14:38;;;;;;;7.25;4.80;;;4.20;99.90;;;;;;7333986;32;20107;-55
2023/03/12 10:18:46;;;;;;;6.37;5.00;;;4.20;99.90;;;;;;7334109;32;20126;-56
2023/03/12 10:22:59;;;;;;;5.30;3.87;;;4.40;99.90;;;;;;7327867;32;20125;-56
2023/03/12 10:27:00;;;;;;;6.20;4.57;;;4.50;99.90;;;;;;7339315;32;20127;-56
2023/03/12 10:31:07;;;;;;;4.97;4.00;;;4.60;99.90;;;;;;7335215;32;20314;-57
2023/03/12 10:35:17;;;;;;;4.53;3.78;;;4.70;99.90;;;;;;7332532;32;20591;-56
2023/03/12 10:39:22;;;;;;;4.78;4.10;;;4.80;99.90;;;;;;7337520;32;20263;-56
2023/03/12 10:43:23;;;;;;;4.45;3.83;;;4.90;99.90;;;;;;7333720;32;20731;-56
2023/03/12 10:47:35;;;;;;;6.00;4.43;;;5.00;99.90;;;;;;7333600;32;20152;-57
2023/03/12 10:51:54;;;;;;;5.43;4.75;;;5.10;99.90;;;;;;7333743;32;20125;-57
2023/03/12 10:56:06;;;;;;;6.55;5.20;;;5.20;99.90;;;;;;7338955;32;20536;-57
2023/03/12 11:00:15;;;;;;;6.10;5.47;;;5.40;99.90;;;;;;7334266;32;20510;-56
2023/03/12 11:04:26;;;;;;;9.40;6.25;;;5.40;99.90;;;;;;7332025;32;20217;-56
2023/03/12 11:08:32;;;;;;;8.88;7.72;;;5.40;99.90;;;;;;7331999;32;20632;-56
2023/03/12 11:12:38;;;;;;;9.88;8.40;;;5.40;99.90;;;;;;7332611;32;20291;-56
2023/03/12 11:16:40;;;;;;;10.95;9.50;;;5.60;99.90;;;;;;7335408;32;20139;-56
2023/03/12 11:20:42;;;;;;;13.60;9.75;;;5.60;99.90;;;;;;7334163;32;20111;-56
2023/03/12 11:24:59;;;;;;;13.65;10.75;;;5.70;99.90;;;;;;7334061;32;20100;-56
2023/03/12 11:29:09;;;;;;;13.10;11.10;;;5.70;99.90;;;;;;7327929;32;20493;-57
2023/03/12 11:33:11;;;;;;;12.73;11.12;;;5.90;99.90;;;;;;7334889;32;20224;-56
2023/03/12 11:37:24;;;;;;;13.15;11.00;;;5.90;99.90;;;;;;7336878;32;20179;-57
2023/03/12 11:41:42;;;;;;;11.93;10.20;;;6.10;99.90;;;;;;7333187;32;20591;-58
2023/03/12 11:45:59;;;;;;;12.88;10.45;;;6.20;99.90;;;;;;7329936;32;20130;-56
2023/03/12 11:50:35;;;;;;;11.60;10.23;;;6.40;99.90;;;;;;7333309;32;20224;-56
2023/03/12 11:54:48;;;;;;;10.80;9.35;;;6.60;99.90;;;;;;7328525;32;20208;-57
2023/03/12 11:59:23;;;;;;;12.32;9.82;;;6.60;99.90;;;;;;7328322;32;20238;-56
2023/03/12 12:03:45;;;;;;;11.60;10.00;;;6.70;99.90;;;;;;7334862;32;20530;-56
2023/03/12 12:07:59;;;;;;;11.40;9.65;;;6.80;99.90;;;;;;7338021;32;20792;-57
2023/03/12 12:12:23;;;;;;;13.40;10.45;;;6.90;99.90;;;;;;7334175;32;20233;-56
2023/03/12 12:16:35;;;;;;;13.23;10.70;;;7.00;99.90;;;;;;7331006;32;20265;-58
2023/03/12 12:20:47;;;;;;;12.52;11.00;;;7.10;99.90;;;;;;7336786;32;20258;-56
2023/03/12 12:24:57;;;;;;;12.75;11.45;;;7.10;99.90;;;;;;7338527;32;20133;-57
2023/03/12 12:29:31;;;;;;;14.57;11.65;;;7.10;99.90;;;;;;7335976;32;20142;-57
2023/03/12 12:33:53;;;;;;;13.80;11.60;;;7.20;99.90;;;;;;7337137;32;20121;-56
2023/03/12 12:38:06;;;;;;;13.77;11.95;;;7.30;99.90;;;;;;7339706;32;20095;-56
2023/03/12 12:42:16;;;;;;;15.95;12.37;;;7.40;99.90;;;;;;7336735;32;20125;-57
2023/03/12 12:46:31;;;;;;;17.08;11.93;;;7.60;99.90;;;;;;7338939;32;20313;-57
2023/03/12 12:50:37;;;;;;;20.80;13.13;;;7.80;99.90;;;;;;7337866;32;20143;-56
2023/03/12 12:54:49;;;;;;;16.43;13.03;;;8.00;99.90;;;;;;7333318;32;20123;-56
2023/03/12 12:59:24;;;;;;;23.98;12.60;;;8.40;99.90;;;;;;7336382;32;20186;-57
2023/03/12 13:03:28;;;;;;;20.62;13.00;;;8.80;99.90;;;;;;7333616;32;20210;-57
2023/03/12 13:07:33;;;;;;;19.20;11.00;;;9.20;99.90;;;;;;7335508;32;20207;-56
2023/03/12 13:11:41;;;;;;;22.40;11.00;;;9.50;99.90;;;;;;7340052;32;20633;-57
2023/03/12 13:15:43;;;;;;;24.42;10.80;;;9.80;99.90;;;;;;7329367;32;20148;-56
2023/03/12 13:19:49;;;;;;;23.15;9.80;;;10.00;99.90;;;;;;7333811;32;20555;-56
2023/03/12 13:24:17;;;;;;;21.15;9.45;;;10.10;99.90;;;;;;7333665;32;20100;-56
2023/03/12 13:28:28;;;;;;;19.85;9.80;;;10.30;99.90;;;;;;7334315;32;20762;-57
2023/03/12 13:32:33;;;;;;;30.67;10.02;;;10.10;99.90;;;;;;7335364;32;20135;-57
2023/03/12 13:36:36;;;;;;;23.55;9.85;;;10.10;99.90;;;;;;7336925;32;20263;-58
2023/03/12 13:41:00;;;;;;;24.20;9.57;;;10.00;99.90;;;;;;7330411;32;20650;-58
2023/03/12 13:45:24;;;;;;;23.83;9.30;;;9.90;99.90;;;;;;7331282;32;20638;-60
2023/03/12 13:49:39;;;;;;;27.08;9.70;;;9.80;99.90;;;;;;7334202;32;20544;-56
2023/03/12 13:53:45;;;;;;;23.48;10.20;;;9.70;99.90;;;;;;7337796;32;20265;-57
2023/03/12 13:57:52;;;;;;;27.42;9.85;;;9.60;99.90;;;;;;7335129;32;20114;-57
2023/03/12 14:01:59;;;;;;;29.42;11.02;;;9.40;99.90;;;;;;7336487;32;20202;-57
2023/03/12 14:06:03;;;;;;;26.27;9.30;;;9.50;99.90;;;;;;7334974;32;20157;-58
2023/03/12 14:10:27;;;;;;;27.33;10.95;;;9.70;99.90;;;;;;7332565;32;20243;-57
2023/03/12 14:15:24;;;;;;;24.63;9.45;;;9.80;99.90;;;;;;7334868;32;20115;-56
2023/03/12 14:19:29;;;;;;;30.00;7.47;;;10.00;99.90;;;;;;7318593;32;20230;-56
2023/03/12 14:23:38;;;;;;;23.85;7.25;;;10.10;99.90;;;;;;7334906;32;20106;-57
2023/03/12 14:27:43;;;;;;;30.98;6.75;;;10.10;99.90;;;;;;7333479;32;20597;-57
2023/03/12 14:31:47;;;;;;;27.35;6.03;;;10.00;99.90;;;;;;7336776;32;20179;-57
2023/03/12 14:36:02;;;;;;;30.52;6.53;;;9.90;99.90;;;;;;7339761;32;20180;-57
2023/03/12 14:40:24;;;;;;;27.15;6.93;;;10.20;99.90;;;;;;7334037;32;20230;-57
2023/03/12 14:44:29;;;;;;;35.40;7.43;;;10.50;99.90;;;;;;7334573;32;20265;-57
2023/03/12 14:48:33;;;;;;;30.98;5.68;;;10.60;99.90;;;;;;7337688;32;20155;-56
2023/03/12 14:52:35;;;;;;;25.62;5.20;;;10.80;99.90;;;;;;7337452;32;20146;-57
2023/03/12 14:56:43;;;;;;;21.70;4.45;;;10.90;99.90;;;;;;7335019;32;20141;-57
2023/03/12 15:00:57;;;;;;;25.15;5.30;;;11.00;99.90;;;;;;7333318;32;20122;-57
2023/03/12 15:05:00;;;;;;;24.77;4.90;;;10.90;99.90;;;;;;7337565;32;20227;-57
2023/03/12 15:09:05;;;;;;;23.12;4.47;;;10.90;99.90;;;;;;7336057;32;20169;-57
2023/03/12 15:13:11;;;;;;;25.12;4.37;;;10.80;99.90;;;;;;7334378;32;20102;-57
2023/03/12 15:17:17;;;;;;;30.55;4.37;;;10.90;99.90;;;;;;7331280;32;20161;-57
2023/03/12 15:21:20;;;;;;;25.05;4.65;;;10.90;99.90;;;;;;7326890;32;20478;-57
2023/03/12 15:25:24;;;;;;;23.73;4.80;;;11.00;99.90;;;;;;7330222;32;20216;-57
2023/03/12 15:29:29;;;;;;;28.70;4.90;;;11.10;99.90;;;;;;7330369;32;20104;-57
2023/03/12 15:33:30;;;;;;;29.50;6.05;;;11.10;99.90;;;;;;7335060;32;20172;-55
2023/03/12 15:37:37;;;;;;;30.08;6.18;;;11.00;99.90;;;;;;7335184;32;20111;-57
2023/03/12 15:41:47;;;;;;;30.08;5.40;;;10.90;99.90;;;;;;7329671;32;20177;-56
2023/03/12 15:46:04;;;;;;;30.92;4.95;;;10.90;99.90;;;;;;7331745;32;20107;-56
2023/03/12 15:50:17;;;;;;;32.95;5.10;;;10.90;99.90;;;;;;7330334;32;20160;-55
2023/03/12 15:54:18;;;;;;;26.58;5.22;;;10.90;99.90;;;;;;7332176;32;20191;-57
2023/03/12 15:58:27;;;;;;;24.52;5.68;;;10.90;99.90;;;;;;7326861;32;20151;-56
2023/03/12 16:02:38;;;;;;;23.33;4.80;;;10.90;99.90;;;;;;7331205;32;20152;-56
2023/03/12 16:06:42;;;;;;;27.00;4.75;;;10.90;99.90;;;;;;7323732;32;20123;-56
2023/03/12 16:10:45;;;;;;;28.70;5.15;;;10.90;99.90;;;;;;7336829;32;20094;-57
2023/03/12 16:14:48;;;;;;;23.62;5.45;;;10.90;99.90;;;;;;7329862;32;20195;-57
2023/03/12 16:18:49;;;;;;;23.52;5.10;;;10.90;99.90;;;;;;7338478;32;20182;-57
2023/03/12 16:22:51;;;;;;;21.67;4.50;;;10.90;99.90;;;;;;7337211;32;20178;-57
2023/03/12 16:26:56;;;;;;;29.02;5.37;;;10.80;99.90;;;;;;7338507;32;20281;-56
2023/03/12 16:30:58;;;;;;;27.40;4.62;;;10.80;99.90;;;;;;7331427;32;20196;-57
2023/03/12 16:34:59;;;;;;;27.30;5.53;;;10.80;99.90;;;;;;7335100;32;20092;-57
2023/03/12 16:39:01;;;;;;;24.80;5.10;;;10.70;99.90;;;;;;7332364;32;20233;-56
2023/03/12 16:43:06;;;;;;;26.83;4.85;;;10.80;99.90;;;;;;7339785;32;20126;-56
2023/03/12 16:47:11;;;;;;;24.77;4.95;;;10.70;99.90;;;;;;7332546;32;20131;-57
2023/03/12 16:51:14;;;;;;;27.98;5.43;;;10.60;99.90;;;;;;7335209;32;20104;-56
2023/03/12 16:55:18;;;;;;;30.75;5.10;;;10.60;99.90;;;;;;7339112;32;20739;-56
2023/03/12 16:59:27;;;;;;;25.05;4.60;;;10.60;99.90;;;;;;7336690;32;20099;-56
2023/03/12 17:03:31;;;;;;;27.05;3.97;;;10.50;99.90;;;;;;7330465;32;20168;-56
2023/03/12 17:07:36;;;;;;;28.87;5.00;;;10.50;99.90;;;;;;7340865;32;20549;-56
2023/03/12 17:11:38;;;;;;;23.27;4.32;;;10.40;99.90;;;;;;7334537;32;20146;-58
2023/03/12 17:15:40;;;;;;;28.25;4.57;;;10.50;99.90;;;;;;7339502;32;20461;-58
2023/03/12 17:19:42;;;;;;;28.70;4.70;;;10.40;99.90;;;;;;7333286;32;20123;-55
2023/03/12 17:23:46;;;;;;;26.77;5.28;;;10.40;99.90;;;;;;7327002;32;20143;-56
2023/03/12 17:27:48;;;;;;;21.17;4.18;;;10.40;99.90;;;;;;7340391;32;20130;-56
2023/03/12 17:31:50;;;;;;;24.45;4.35;;;10.30;99.90;;;;;;7333068;32;20122;-56
2023/03/12 17:36:01;;;;;;;31.83;4.97;;;10.20;99.90;;;;;;7332265;32;20173;-57
2023/03/12 17:40:07;;;;;;;25.27;3.80;;;10.30;99.90;;;;;;7340698;32;20218;-56
2023/03/12 17:44:10;;;;;;;24.05;5.07;;;10.20;99.90;;;;;;7332712;32;20176;-56
2023/03/12 17:48:13;;;;;;;25.23;4.90;;;10.30;99.90;;;;;;7338559;32;20193;-56
2023/03/12 17:52:14;;;;;;;25.58;4.53;;;10.30;99.90;;;;;;7341242;32;20127;-55
2023/03/12 17:56:17;;;;;;;30.60;6.25;;;10.10;99.90;;;;;;7338823;32;20204;-57
2023/03/12 18:00:20;;;;;;;25.98;4.43;;;10.10;99.90;;;;;;7330754;32;20119;-56
2023/03/12 18:04:22;;;;;;;25.12;4.87;;;10.00;99.90;;;;;;7325840;32;20199;-55
2023/03/12 18:08:24;;;;;;;23.87;4.75;;;10.10;99.90;;;;;;7332643;32;20133;-56
2023/03/12 18:12:26;;;;;;;32.03;4.80;;;10.10;99.90;;;;;;7333104;32;20602;-56
2023/03/12 18:16:28;;;;;;;28.35;4.65;;;10.10;99.90;;;;;;7336271;32;20120;-56
2023/03/12 18:20:30;;;;;;;25.42;5.30;;;10.10;99.90;;;;;;7335697;32;20179;-55
2023/03/12 18:24:40;;;;;;;34.78;5.80;;;10.10;99.90;;;;;;7333954;32;20570;-55
2023/03/12 18:28:42;;;;;;;23.65;3.95;;;10.00;99.90;;;;;;7333672;32;20268;-56
2023/03/12 18:32:44;;;;;;;22.70;4.32;;;9.90;99.90;;;;;;7340624;32;20555;-57
2023/03/12 18:36:46;;;;;;;22.73;4.22;;;9.90;99.90;;;;;;7336483;32;20233;-55
2023/03/12 18:40:48;;;;;;;29.42;5.60;;;10.00;99.90;;;;;;7331651;32;20111;-56
2023/03/12 18:44:50;;;;;;;22.77;3.90;;;10.00;99.90;;;;;;7327750;32;20135;-56
2023/03/12 18:48:52;;;;;;;23.92;4.40;;;9.90;99.90;;;;;;7330569;32;20197;-56
2023/03/12 18:52:54;;;;;;;25.98;4.20;;;10.00;99.90;;;;;;7335171;32;20576;-55
2023/03/12 18:56:55;;;;;;;26.02;4.25;;;10.00;99.90;;;;;;7330999;32;20177;-56
2023/03/12 19:00:58;;;;;;;25.62;4.65;;;10.00;99.90;;;;;;7332803;32;20834;-54
2023/03/12 19:05:02;;;;;;;25.85;4.30;;;10.00;99.90;;;;;;7336041;32;20599;-54
2023/03/12 19:09:04;;;;;;;30.73;5.07;;;10.00;99.90;;;;;;7330629;32;20715;-54
2023/03/12 19:13:06;;;;;;;26.08;4.20;;;10.00;99.90;;;;;;7325477;32;20209;-54
2023/03/12 19:17:07;;;;;;;25.00;4.53;;;9.90;99.90;;;;;;7331913;32;20103;-54
2023/03/12 19:21:09;;;;;;;25.90;4.28;;;10.00;99.90;;;;;;7329880;32;20192;-54
2023/03/12 19:25:11;;;;;;;23.62;3.97;;;10.00;99.90;;;;;;7323094;32;20570;-56
2023/03/12 19:29:15;;;;;;;26.15;4.20;;;10.00;99.90;;;;;;7331570;32;20232;-56
2023/03/12 19:33:16;;;;;;;28.67;4.12;;;10.10;99.90;;;;;;7336057;32;20103;-56
2023/03/12 19:37:18;;;;;;;20.85;4.47;;;10.10;99.90;;;;;;7328244;32;20106;-54
2023/03/12 19:41:20;;;;;;;20.27;3.65;;;10.10;99.90;;;;;;7332340;32;20534;-54
2023/03/12 19:45:22;;;;;;;21.20;4.15;;;10.20;99.90;;;;;;7327294;32;20268;-53
2023/03/12 19:49:24;;;;;;;25.60;4.43;;;10.10;99.90;;;;;;7332588;32;20142;-54
2023/03/12 19:53:26;;;;;;;32.70;4.40;;;10.20;99.90;;;;;;7332447;32;20139;-56
2023/03/12 19:57:27;;;;;;;28.00;4.53;;;10.20;99.90;;;;;;7333401;32;20129;-54
2023/03/12 20:01:29;;;;;;;17.75;3.67;;;10.10;99.90;;;;;;7335166;32;20148;-54
2023/03/12 20:05:31;;;;;;;29.75;4.78;;;10.30;99.90;;;;;;7340422;32;20633;-53
2023/03/12 20:09:33;;;;;;;21.35;3.87;;;10.20;99.90;;;;;;7343899;32;20194;-54
2023/03/12 20:13:38;;;;;;;20.98;4.53;;;10.10;99.90;;;;;;7332944;32;20594;-54
2023/03/12 20:17:40;;;;;;;26.83;4.45;;;10.00;99.90;;;;;;7336562;32;20506;-54
2023/03/12 20:21:42;;;;;;;22.13;5.28;;;9.90;99.90;;;;;;7332873;32;20195;-55
2023/03/12 20:25:48;;;;;;;20.95;4.35;;;9.80;99.90;;;;;;7342216;32;20212;-54
2023/03/12 20:29:50;;;;;;;24.27;4.30;;;9.80;99.90;;;;;;7345033;32;20179;-55
2023/03/12 20:33:52;;;;;;;31.52;5.15;;;9.80;99.90;;;;;;7340876;32;20631;-55
2023/03/12 20:37:54;;;;;;;20.95;4.30;;;9.70;99.90;;;;;;7331126;32;20170;-55
2023/03/12 20:41:55;;;;;;;26.48;5.20;;;9.70;99.90;;;;;;7340832;32;20161;-55
2023/03/12 20:45:57;;;;;;;23.87;4.70;;;9.70;99.90;;;;;;7341975;32;20123;-55
2023/03/12 20:49:59;;;;;;;22.37;4.32;;;9.60;99.90;;;;;;7337613;32;20111;-54
2023/03/12 20:54:00;;;;;;;21.83;4.18;;;9.70;99.90;;;;;;7336363;32;20515;-55
2023/03/12 20:58:02;;;;;;;21.27;3.72;;;9.70;99.90;;;;;;7337069;32;20400;-54
2023/03/12 21:02:04;;;;;;;19.60;4.93;;;9.80;99.90;;;;;;7331264;32;20174;-54
2023/03/12 21:06:06;;;;;;;21.55;4.05;;;9.70;99.90;;;;;;7335532;32;20165;-54
2023/03/12 21:10:09;;;;;;;19.85;5.03;;;9.70;99.90;;;;;;7340069;32;20107;-54
2023/03/12 21:14:10;;;;;;;22.45;4.50;;;9.80;99.90;;;;;;7338805;32;20103;-55
2023/03/12 21:18:12;;;;;;;16.92;3.85;;;9.80;99.90;;;;;;7345279;32;20263;-54